Time;durP1;ratioP1;P1;durP2;ratioP2;P2;SDS_P1;SDS_P2;PMS_P1;PMS_P2;Temp;Humidity;BMP_temperature;BMP_pressure;BME280_temperature;BME280_humidity;BME280_pressure;Samples;Min_cycle;Max_cycle;Signal;HPM_P1;HPM_P2
2022/03/15 00:00:25;;;;;;;17.65;6.57;;;2.80;99.90;;;;;;6271759;22;20095;-82
2022/03/15 00:02:50;;;;;;;16.50;5.93;;;2.80;99.90;;;;;;6246136;22;20395;-82
2022/03/15 00:05:17;;;;;;;14.82;5.82;;;2.90;99.90;;;;;;6271903;22;20016;-83
2022/03/15 00:07:44;;;;;;;19.40;6.03;;;3.00;99.90;;;;;;6273194;22;20433;-82
2022/03/15 00:10:12;;;;;;;23.35;7.40;;;3.00;99.90;;;;;;6273095;22;20440;-82
2022/03/15 00:12:41;;;;;;;18.98;6.63;;;3.10;99.90;;;;;;6273863;22;20012;-82
2022/03/15 00:15:10;;;;;;;16.38;5.95;;;3.10;99.90;;;;;;6273715;22;20051;-82
2022/03/15 00:17:37;;;;;;;19.73;6.15;;;2.90;99.90;;;;;;6273121;22;20019;-83
2022/03/15 00:20:08;;;;;;;12.63;5.68;;;3.20;99.90;;;;;;6273678;22;20030;-82
2022/03/15 00:22:35;;;;;;;16.75;5.55;;;3.20;99.90;;;;;;6273479;22;20015;-83
2022/03/15 00:25:07;;;;;;;17.15;6.00;;;3.20;99.90;;;;;;6273172;22;20020;-82
2022/03/15 00:27:34;;;;;;;19.20;6.05;;;3.30;99.90;;;;;;6273145;22;20015;-81
2022/03/15 00:30:01;;;;;;;22.33;6.40;;;3.30;99.90;;;;;;6273420;22;20043;-82
2022/03/15 00:32:27;;;;;;;19.48;6.13;;;3.30;99.90;;;;;;6271459;22;20065;-82
2022/03/15 00:34:53;;;;;;;14.93;6.00;;;3.80;99.90;;;;;;6272988;22;20669;-82
2022/03/15 00:37:20;;;;;;;17.17;5.95;;;3.30;99.90;;;;;;6273578;22;20026;-82
2022/03/15 00:39:46;;;;;;;22.98;7.03;;;3.40;99.90;;;;;;6271589;22;20433;-82
2022/03/15 00:42:12;;;;;;;17.63;7.15;;;3.40;99.90;;;;;;6273065;22;20031;-82
2022/03/15 00:44:38;;;;;;;18.17;6.65;;;3.40;99.90;;;;;;6273273;22;20015;-82
2022/03/15 00:47:05;;;;;;;16.02;6.53;;;3.40;99.90;;;;;;6244739;22;20015;-82
2022/03/15 00:49:31;;;;;;;18.80;6.00;;;3.40;99.90;;;;;;6273118;22;20018;-82
2022/03/15 00:51:56;;;;;;;17.75;6.10;;;4.20;99.90;;;;;;6273311;22;20012;-82
2022/03/15 00:54:22;;;;;;;18.42;6.50;;;3.40;99.90;;;;;;6271162;22;20317;-82
2022/03/15 00:56:48;;;;;;;18.98;6.05;;;3.40;99.90;;;;;;6272756;22;20019;-81
2022/03/15 00:59:15;;;;;;;20.33;6.50;;;3.50;99.90;;;;;;6272824;22;20016;-82
2022/03/15 01:01:41;;;;;;;17.02;6.18;;;3.50;99.90;;;;;;6271326;22;20678;-83
2022/03/15 01:04:07;;;;;;;12.35;6.10;;;3.50;99.90;;;;;;6273415;22;20065;-83
2022/03/15 01:06:34;;;;;;;17.63;6.60;;;3.50;99.90;;;;;;6273233;22;20090;-83
2022/03/15 01:09:01;;;;;;;17.23;6.80;;;3.50;99.90;;;;;;6271290;22;20496;-83
2022/03/15 01:11:27;;;;;;;22.40;6.97;;;3.50;99.90;;;;;;6273291;22;20127;-82
2022/03/15 01:13:53;;;;;;;19.52;6.25;;;3.50;99.90;;;;;;6272971;22;20020;-83
2022/03/15 01:16:19;;;;;;;15.75;6.00;;;3.50;99.90;;;;;;6273395;22;20027;-82
2022/03/15 01:18:44;;;;;;;15.73;6.03;;;3.50;99.90;;;;;;6245565;22;20050;-83
2022/03/15 01:21:13;;;;;;;19.27;6.28;;;4.20;99.90;;;;;;6273931;22;20365;-82
2022/03/15 01:23:39;;;;;;;27.23;7.68;;;3.50;99.90;;;;;;6273776;22;20026;-82
2022/03/15 01:26:05;;;;;;;19.33;6.00;;;3.50;99.90;;;;;;6273212;22;20008;-83
2022/03/15 01:28:30;;;;;;;21.95;6.85;;;3.50;99.90;;;;;;6271001;22;20026;-82
2022/03/15 01:30:56;;;;;;;17.90;5.90;;;3.50;99.90;;;;;;6273393;22;20019;-83
2022/03/15 01:33:23;;;;;;;21.52;6.53;;;3.50;99.90;;;;;;6271143;22;20437;-83
2022/03/15 01:35:48;;;;;;;13.20;6.70;;;3.50;99.90;;;;;;6273479;22;20337;-84
2022/03/15 01:38:14;;;;;;;24.13;6.97;;;3.50;99.90;;;;;;6271295;22;20016;-82
2022/03/15 01:40:40;;;;;;;15.15;6.03;;;3.50;99.90;;;;;;6273281;22;20051;-82
2022/03/15 01:43:06;;;;;;;21.83;6.93;;;3.50;99.90;;;;;;6273241;22;20314;-83
2022/03/15 01:45:37;;;;;;;22.45;6.40;;;3.50;99.90;;;;;;6273043;22;20077;-83
2022/03/15 01:48:04;;;;;;;16.17;7.00;;;4.40;99.90;;;;;;6273132;22;20026;-84
2022/03/15 01:50:30;;;;;;;22.67;7.22;;;3.60;99.90;;;;;;6272741;22;20098;-83
2022/03/15 01:52:56;;;;;;;19.90;7.25;;;3.50;99.90;;;;;;6272924;22;20012;-84
2022/03/15 01:55:22;;;;;;;18.02;7.85;;;3.60;99.90;;;;;;6272787;22;20023;-84
2022/03/15 01:57:49;;;;;;;20.50;8.38;;;3.60;99.90;;;;;;6272984;22;20077;-83
2022/03/15 02:00:17;;;;;;;23.65;9.32;;;3.60;99.90;;;;;;6270569;22;20452;-84
2022/03/15 02:02:43;;;;;;;21.17;7.72;;;3.60;99.90;;;;;;6272683;22;20019;-83
2022/03/15 02:05:10;;;;;;;19.00;8.77;;;3.60;99.90;;;;;;6272866;22;20024;-82
2022/03/15 02:07:36;;;;;;;23.25;9.68;;;3.70;99.90;;;;;;6272680;22;20018;-82
2022/03/15 02:10:03;;;;;;;19.48;9.75;;;3.70;99.90;;;;;;6273945;22;20020;-84
2022/03/15 02:12:29;;;;;;;22.75;9.95;;;4.30;99.90;;;;;;6275019;22;20087;-82
2022/03/15 02:14:57;;;;;;;25.92;9.98;;;3.70;99.90;;;;;;6274625;22;20069;-83
2022/03/15 02:17:22;;;;;;;18.30;9.43;;;4.30;99.90;;;;;;6274514;22;20449;-84
2022/03/15 02:19:49;;;;;;;24.10;9.63;;;3.80;99.90;;;;;;6275028;22;20061;-82
2022/03/15 02:22:14;;;;;;;25.92;11.57;;;3.90;99.90;;;;;;6274587;22;20645;-85
2022/03/15 02:24:42;;;;;;;19.45;9.50;;;3.90;99.90;;;;;;6274720;22;20020;-82
2022/03/15 02:27:08;;;;;;;18.23;9.57;;;3.90;99.90;;;;;;6274353;22;20091;-82
2022/03/15 02:29:33;;;;;;;18.40;9.43;;;4.00;99.90;;;;;;6272961;22;20058;-83
2022/03/15 02:31:59;;;;;;;22.70;10.75;;;3.90;99.90;;;;;;6274442;22;20221;-83
2022/03/15 02:34:25;;;;;;;29.55;11.40;;;4.00;99.90;;;;;;6274356;22;20031;-83
2022/03/15 02:36:51;;;;;;;22.83;10.90;;;4.00;99.90;;;;;;6274540;22;20035;-83
2022/03/15 02:39:17;;;;;;;24.98;10.30;;;4.10;99.90;;;;;;6274124;22;20445;-83
2022/03/15 02:41:43;;;;;;;24.25;9.52;;;4.10;99.90;;;;;;6274533;22;20019;-83
2022/03/15 02:44:09;;;;;;;17.33;9.50;;;4.10;99.90;;;;;;6272716;22;20457;-82
2022/03/15 02:46:36;;;;;;;21.20;10.38;;;4.20;99.90;;;;;;6274112;22;20011;-83
2022/03/15 02:49:02;;;;;;;18.58;9.90;;;4.20;99.90;;;;;;6274723;22;20019;-82
2022/03/15 02:51:28;;;;;;;18.45;9.70;;;4.90;99.90;;;;;;6274602;22;20573;-83
2022/03/15 02:53:54;;;;;;;21.70;10.35;;;4.30;99.90;;;;;;6274901;22;20503;-83
2022/03/15 02:56:21;;;;;;;24.13;10.15;;;4.30;99.90;;;;;;6274708;22;20023;-82
2022/03/15 02:58:47;;;;;;;23.55;11.95;;;4.30;99.90;;;;;;6274005;22;20023;-83
2022/03/15 03:01:13;;;;;;;24.30;11.50;;;4.40;99.90;;;;;;6273378;22;20510;-82
2022/03/15 03:03:38;;;;;;;22.77;11.27;;;4.40;99.90;;;;;;6274461;22;20023;-83
2022/03/15 03:06:05;;;;;;;27.10;10.48;;;4.40;99.90;;;;;;6274136;22;20019;-83
2022/03/15 03:08:31;;;;;;;24.02;10.60;;;4.40;99.90;;;;;;6274111;22;20011;-82
2022/03/15 03:10:58;;;;;;;24.17;10.45;;;4.50;99.90;;;;;;6274115;22;20137;-83
2022/03/15 03:13:27;;;;;;;28.55;10.73;;;4.50;99.90;;;;;;6274319;22;20425;-84
2022/03/15 03:16:00;;;;;;;21.83;10.73;;;4.60;99.90;;;;;;6274017;22;20016;-83
2022/03/15 03:18:28;;;;;;;22.83;10.90;;;4.60;99.90;;;;;;6273661;22;20011;-83
2022/03/15 03:20:55;;;;;;;29.63;11.40;;;4.60;99.90;;;;;;6273436;22;20765;-84
2022/03/15 03:23:21;;;;;;;18.85;11.10;;;4.70;99.90;;;;;;6274437;22;20015;-84
2022/03/15 03:25:47;;;;;;;26.65;10.45;;;4.70;99.90;;;;;;6273633;22;20023;-84
2022/03/15 03:28:14;;;;;;;23.98;11.60;;;5.20;99.90;;;;;;6271597;22;20015;-83
2022/03/15 03:30:46;;;;;;;21.50;10.35;;;5.50;99.90;;;;;;6273983;22;20059;-84
2022/03/15 03:33:13;;;;;;;26.67;11.65;;;4.90;99.90;;;;;;6273518;22;20011;-84
2022/03/15 03:35:39;;;;;;;32.92;12.52;;;5.40;99.90;;;;;;6272020;22;20024;-83
2022/03/15 03:38:05;;;;;;;27.25;11.65;;;5.00;99.90;;;;;;6274064;22;20012;-83
2022/03/15 03:40:32;;;;;;;25.33;10.98;;;5.00;99.90;;;;;;6273852;22;20091;-82
2022/03/15 03:42:58;;;;;;;25.42;11.27;;;5.60;99.90;;;;;;6273908;22;20016;-83
2022/03/15 03:45:23;;;;;;;31.00;13.38;;;5.00;99.90;;;;;;6273757;22;20094;-83
2022/03/15 03:47:49;;;;;;;23.67;11.30;;;5.00;99.90;;;;;;6273433;22;20023;-83
2022/03/15 03:50:15;;;;;;;23.83;11.73;;;5.00;99.90;;;;;;6273368;22;20015;-82
2022/03/15 03:52:40;;;;;;;28.70;12.77;;;5.10;99.90;;;;;;6273517;22;20043;-83
2022/03/15 03:55:07;;;;;;;22.90;12.27;;;5.10;99.90;;;;;;6273847;22;20020;-83
2022/03/15 03:57:33;;;;;;;30.75;12.35;;;5.10;99.90;;;;;;6273634;22;20020;-83
2022/03/15 03:59:59;;;;;;;27.13;13.50;;;5.20;99.90;;;;;;6273628;22;20027;-83
2022/03/15 04:02:26;;;;;;;27.17;12.88;;;5.40;99.90;;;;;;6273935;22;20016;-84
2022/03/15 04:04:53;;;;;;;31.48;13.88;;;5.30;99.90;;;;;;6273487;22;20091;-83
2022/03/15 04:07:19;;;;;;;26.98;12.60;;;5.30;99.90;;;;;;6272152;22;20019;-84
2022/03/15 04:09:45;;;;;;;23.08;11.93;;;5.30;99.90;;;;;;6273449;22;20019;-83
2022/03/15 04:12:10;;;;;;;31.17;13.05;;;5.30;99.90;;;;;;6273710;22;20019;-84
2022/03/15 04:14:36;;;;;;;28.02;13.90;;;5.70;99.90;;;;;;6273625;22;20019;-83
2022/03/15 04:17:07;;;;;;;23.60;13.25;;;5.30;99.90;;;;;;6273666;22;20329;-83
2022/03/15 04:19:32;;;;;;;31.30;13.65;;;6.20;99.90;;;;;;6271237;22;20452;-82
2022/03/15 04:21:59;;;;;;;27.15;12.93;;;5.30;99.90;;;;;;6273361;22;20022;-83
2022/03/15 04:24:25;;;;;;;23.42;13.65;;;5.40;99.90;;;;;;6273602;22;20020;-84
2022/03/15 04:26:51;;;;;;;23.13;12.95;;;5.40;99.90;;;;;;6273920;22;20019;-83
2022/03/15 04:29:17;;;;;;;32.72;14.38;;;6.10;99.90;;;;;;6273825;22;20387;-83
2022/03/15 04:31:43;;;;;;;29.20;13.02;;;5.40;99.90;;;;;;6273475;22;20067;-84
2022/03/15 04:34:09;;;;;;;35.63;14.02;;;6.10;99.90;;;;;;6273039;22;20042;-82
2022/03/15 04:36:39;;;;;;;25.23;13.35;;;5.40;99.90;;;;;;6272369;22;20024;-83
2022/03/15 04:39:05;;;;;;;31.00;14.07;;;5.50;99.90;;;;;;6270362;22;20019;-82
2022/03/15 04:41:31;;;;;;;30.77;15.07;;;5.50;99.90;;;;;;6273077;22;20021;-83
2022/03/15 04:43:56;;;;;;;35.13;15.48;;;5.50;99.90;;;;;;6273137;22;20026;-83
2022/03/15 04:46:23;;;;;;;26.48;13.55;;;5.50;99.90;;;;;;6273454;22;20023;-83
2022/03/15 04:48:49;;;;;;;27.63;14.02;;;5.60;99.90;;;;;;6272966;22;20019;-83
2022/03/15 04:51:15;;;;;;;31.48;15.15;;;5.50;99.90;;;;;;6272919;22;20095;-82
2022/03/15 04:53:40;;;;;;;26.05;14.15;;;5.60;99.90;;;;;;6273179;22;20073;-83
2022/03/15 04:56:06;;;;;;;27.98;14.35;;;5.60;99.90;;;;;;6273290;22;20012;-83
2022/03/15 04:58:32;;;;;;;31.38;14.10;;;5.60;99.90;;;;;;6272751;22;20138;-83
2022/03/15 05:00:58;;;;;;;29.80;15.52;;;5.60;99.90;;;;;;6272761;22;20050;-82
2022/03/15 05:03:24;;;;;;;30.20;14.30;;;5.60;99.90;;;;;;6273147;22;20012;-83
2022/03/15 05:05:50;;;;;;;34.03;16.05;;;5.60;99.90;;;;;;6272631;22;20692;-84
2022/03/15 05:08:16;;;;;;;25.40;14.30;;;5.60;99.90;;;;;;6272558;22;20011;-83
2022/03/15 05:13:26;;;;;;;32.55;15.57;;;5.60;99.90;;;;;;6273019;22;20020;-83
2022/03/15 05:15:53;;;;;;;31.08;14.82;;;5.60;99.90;;;;;;6272913;22;20016;-83
2022/03/15 05:18:19;;;;;;;30.60;15.45;;;5.60;99.90;;;;;;6272951;22;20086;-83
2022/03/15 05:20:45;;;;;;;29.20;15.70;;;5.60;99.90;;;;;;6272566;22;20534;-83
2022/03/15 05:23:11;;;;;;;36.78;16.30;;;5.60;99.90;;;;;;6272206;22;20039;-82
2022/03/15 05:25:36;;;;;;;24.95;13.60;;;5.60;99.90;;;;;;6272688;22;20337;-83
2022/03/15 05:28:02;;;;;;;30.55;15.63;;;5.60;99.90;;;;;;6272878;22;20086;-83
2022/03/15 05:30:28;;;;;;;31.00;14.88;;;5.50;99.90;;;;;;6272918;22;20015;-84
2022/03/15 05:32:54;;;;;;;28.48;13.85;;;5.50;99.90;;;;;;6273015;22;20011;-83
2022/03/15 05:35:19;;;;;;;29.80;14.43;;;5.40;99.90;;;;;;6272602;22;20020;-84
2022/03/15 05:37:45;;;;;;;25.88;13.80;;;5.40;99.90;;;;;;6272303;22;20016;-84
2022/03/15 05:40:11;;;;;;;29.33;15.32;;;5.40;99.90;;;;;;6272337;22;20016;-84
2022/03/15 05:42:37;;;;;;;32.85;14.90;;;5.30;99.90;;;;;;6272691;22;20023;-83
2022/03/15 05:45:03;;;;;;;25.80;14.00;;;6.10;99.90;;;;;;6272568;22;20022;-83
2022/03/15 05:47:29;;;;;;;30.15;14.65;;;5.40;99.90;;;;;;6272728;22;20371;-83
2022/03/15 05:49:55;;;;;;;31.58;15.85;;;5.30;99.90;;;;;;6272270;22;20019;-83
2022/03/15 05:52:20;;;;;;;33.45;16.65;;;5.30;99.90;;;;;;6272643;22;20012;-84
2022/03/15 05:54:46;;;;;;;32.90;15.60;;;5.30;99.90;;;;;;6272836;22;20077;-83
2022/03/15 05:57:12;;;;;;;31.58;16.30;;;5.90;99.90;;;;;;6272649;22;20702;-83
2022/03/15 05:59:38;;;;;;;32.47;15.60;;;5.30;99.90;;;;;;6272315;22;20054;-84
2022/03/15 06:02:03;;;;;;;30.17;16.33;;;5.30;99.90;;;;;;6270670;22;20024;-83
2022/03/15 06:04:29;;;;;;;37.90;15.98;;;5.30;99.90;;;;;;6272449;22;20099;-83
2022/03/15 06:06:55;;;;;;;29.67;16.67;;;5.30;99.90;;;;;;6272187;22;20020;-83
2022/03/15 06:09:23;;;;;;;34.50;17.02;;;5.30;99.90;;;;;;6270352;22;20026;-83
2022/03/15 06:11:49;;;;;;;33.92;17.58;;;5.30;99.90;;;;;;6272788;22;20016;-84
2022/03/15 06:14:15;;;;;;;34.92;17.77;;;5.40;99.90;;;;;;6272658;22;20019;-83
2022/03/15 06:16:41;;;;;;;31.20;16.42;;;5.30;99.90;;;;;;6270676;22;20019;-83
2022/03/15 06:19:06;;;;;;;38.20;16.42;;;5.70;99.90;;;;;;6270544;22;20444;-83
2022/03/15 06:21:32;;;;;;;29.00;16.35;;;5.40;99.90;;;;;;6271935;22;20091;-83
2022/03/15 06:23:58;;;;;;;35.38;18.55;;;5.40;99.90;;;;;;6272209;22;20102;-84
2022/03/15 06:26:24;;;;;;;39.28;18.77;;;6.10;99.90;;;;;;6272635;22;20336;-84
2022/03/15 06:28:49;;;;;;;37.78;18.80;;;5.40;99.90;;;;;;6272688;22;20019;-83
2022/03/15 06:31:15;;;;;;;42.97;18.35;;;5.50;99.90;;;;;;6272031;22;20364;-82
2022/03/15 06:33:46;;;;;;;35.33;19.23;;;6.00;99.90;;;;;;6272454;22;20016;-83
2022/03/15 06:36:12;;;;;;;30.42;17.73;;;6.10;99.90;;;;;;6272351;22;20039;-83
2022/03/15 06:38:41;;;;;;;38.08;18.40;;;6.20;99.90;;;;;;6272480;22;20016;-85
2022/03/15 06:41:14;;;;;;;38.50;18.48;;;5.60;99.90;;;;;;6272298;22;20515;-83
2022/03/15 06:43:41;;;;;;;40.78;17.88;;;5.60;99.90;;;;;;6272955;22;20024;-83
2022/03/15 06:46:08;;;;;;;37.22;18.52;;;5.70;99.90;;;;;;6272710;22;20034;-83
2022/03/15 06:48:37;;;;;;;39.13;18.25;;;5.70;99.90;;;;;;6271820;22;20086;-83
2022/03/15 06:51:02;;;;;;;44.95;19.05;;;5.70;99.90;;;;;;6272199;22;20106;-83
2022/03/15 06:53:29;;;;;;;34.42;17.52;;;6.50;99.90;;;;;;6271782;22;20047;-83
2022/03/15 06:55:55;;;;;;;44.53;19.73;;;5.80;99.90;;;;;;6273006;22;20016;-84
2022/03/15 06:58:21;;;;;;;35.33;18.98;;;5.80;99.90;;;;;;6273909;22;20412;-83
2022/03/15 07:00:47;;;;;;;37.85;19.10;;;5.80;99.90;;;;;;6272125;22;20456;-83
2022/03/15 07:03:14;;;;;;;33.45;19.27;;;5.80;99.90;;;;;;6273682;22;20535;-83
2022/03/15 07:05:40;;;;;;;35.95;19.92;;;5.90;99.90;;;;;;6273827;22;20019;-83
2022/03/15 07:08:06;;;;;;;38.60;20.05;;;5.90;99.90;;;;;;6271672;22;20077;-83
2022/03/15 07:10:32;;;;;;;41.30;21.42;;;5.90;99.90;;;;;;6273142;22;20019;-80
2022/03/15 07:12:59;;;;;;;39.05;20.83;;;6.50;99.90;;;;;;6273829;22;20104;-82
2022/03/15 07:15:25;;;;;;;44.22;21.58;;;6.00;99.90;;;;;;6271707;22;20020;-80
2022/03/15 07:17:52;;;;;;;36.83;19.85;;;6.80;99.90;;;;;;6273480;22;20073;-80
2022/03/15 07:20:19;;;;;;;37.95;19.80;;;6.70;99.90;;;;;;6273795;22;20012;-80
2022/03/15 07:22:45;;;;;;;43.60;21.63;;;6.10;99.90;;;;;;6273574;22;20479;-80
2022/03/15 07:25:11;;;;;;;34.40;19.52;;;6.90;99.90;;;;;;6274119;22;20012;-81
2022/03/15 07:27:37;;;;;;;38.13;21.85;;;6.10;99.90;;;;;;6273743;22;20059;-80
2022/03/15 07:30:03;;;;;;;46.15;21.20;;;6.20;99.90;;;;;;6274310;22;20020;-80
2022/03/15 07:32:29;;;;;;;43.95;20.15;;;6.20;99.90;;;;;;6272170;22;20027;-80
2022/03/15 07:34:55;;;;;;;47.00;22.90;;;6.30;99.90;;;;;;6274229;22;20019;-81
2022/03/15 07:37:20;;;;;;;42.80;21.75;;;6.30;99.90;;;;;;6273681;22;20432;-80
2022/03/15 07:39:46;;;;;;;37.63;20.77;;;6.30;99.90;;;;;;6273526;22;20125;-80
2022/03/15 07:42:12;;;;;;;37.95;21.70;;;6.40;99.90;;;;;;6273326;22;20448;-82
2022/03/15 07:44:41;;;;;;;36.20;21.70;;;6.40;99.90;;;;;;6273644;22;20015;-81
2022/03/15 07:47:07;;;;;;;39.05;20.55;;;7.10;99.90;;;;;;6274340;22;20474;-80
2022/03/15 07:49:33;;;;;;;40.63;22.05;;;6.40;99.90;;;;;;6273866;22;20090;-81
2022/03/15 07:51:58;;;;;;;38.63;21.35;;;6.50;99.90;;;;;;6273731;22;20094;-81
2022/03/15 07:54:24;;;;;;;39.50;22.38;;;6.50;99.90;;;;;;6273744;22;20057;-81
2022/03/15 07:56:50;;;;;;;42.58;21.73;;;6.50;99.90;;;;;;6273511;22;20020;-81
2022/03/15 07:59:16;;;;;;;40.22;22.40;;;6.70;99.90;;;;;;6272808;22;20349;-82
2022/03/15 08:01:42;;;;;;;40.40;22.63;;;7.20;99.90;;;;;;6273251;22;20019;-80
2022/03/15 08:04:08;;;;;;;47.80;22.98;;;6.70;99.90;;;;;;6273195;22;20023;-78
2022/03/15 08:06:35;;;;;;;51.15;23.73;;;6.70;99.90;;;;;;6273091;22;20086;-81
2022/03/15 08:09:04;;;;;;;43.90;22.70;;;6.70;99.90;;;;;;6273657;22;20016;-76
2022/03/15 08:11:30;;;;;;;43.58;21.38;;;6.70;99.90;;;;;;6271644;22;20081;-80
2022/03/15 08:13:57;;;;;;;42.67;22.52;;;6.80;99.90;;;;;;6272564;22;20023;-81
2022/03/15 08:16:23;;;;;;;38.63;22.17;;;6.80;99.90;;;;;;6273671;22;20436;-81
2022/03/15 08:18:50;;;;;;;37.60;21.88;;;6.80;99.90;;;;;;6273661;22;20016;-82
2022/03/15 08:21:16;;;;;;;40.80;22.08;;;6.90;99.90;;;;;;6271503;22;20546;-81
2022/03/15 08:23:43;;;;;;;46.95;23.05;;;6.90;99.90;;;;;;6273227;22;20038;-80
2022/03/15 08:26:09;;;;;;;41.58;23.45;;;7.00;99.90;;;;;;6273594;22;20141;-81
2022/03/15 08:28:35;;;;;;;50.42;23.20;;;7.00;99.90;;;;;;6273005;22;20016;-80
2022/03/15 08:31:01;;;;;;;39.60;22.48;;;7.10;99.90;;;;;;6273544;22;20039;-81
2022/03/15 08:33:27;;;;;;;47.03;22.92;;;7.10;99.90;;;;;;6273272;22;20439;-81
2022/03/15 08:35:53;;;;;;;42.97;22.73;;;7.20;99.90;;;;;;6273067;22;20081;-81
2022/03/15 08:38:19;;;;;;;52.67;23.98;;;7.20;99.90;;;;;;6273103;22;20058;-83
2022/03/15 08:40:45;;;;;;;39.33;23.00;;;7.20;99.90;;;;;;6273299;22;20026;-84
2022/03/15 08:43:12;;;;;;;37.22;21.70;;;7.60;99.90;;;;;;6273581;22;20340;-83
2022/03/15 08:45:39;;;;;;;43.50;23.10;;;7.40;99.90;;;;;;6271019;22;20023;-83
2022/03/15 08:48:06;;;;;;;38.10;23.70;;;7.40;99.90;;;;;;6273362;22;20367;-80
2022/03/15 08:50:32;;;;;;;50.72;25.30;;;7.50;99.90;;;;;;6273421;22;20023;-80
2022/03/15 08:52:58;;;;;;;38.83;23.85;;;8.10;99.90;;;;;;6273492;22;20018;-81
2022/03/15 08:55:27;;;;;;;39.85;22.70;;;8.50;99.90;;;;;;6271522;22;20403;-81
2022/03/15 08:57:53;;;;;;;44.38;24.27;;;7.70;99.90;;;;;;6273374;22;20008;-82
2022/03/15 09:00:19;;;;;;;39.53;22.40;;;8.40;99.90;;;;;;6273284;22;20356;-80
2022/03/15 09:02:45;;;;;;;43.38;23.65;;;7.80;99.90;;;;;;6273473;22;20336;-83
2022/03/15 09:05:18;;;;;;;36.65;21.83;;;8.30;99.90;;;;;;6272989;22;20016;-82
2022/03/15 09:07:51;;;;;;;38.05;22.88;;;8.00;99.90;;;;;;6273338;22;20019;-81
2022/03/15 09:10:22;;;;;;;42.95;23.42;;;8.00;99.90;;;;;;6270986;22;20353;-80
2022/03/15 09:12:50;;;;;;;35.30;23.15;;;8.10;99.90;;;;;;6273224;22;20012;-80
2022/03/15 09:15:16;;;;;;;35.80;21.88;;;8.20;99.90;;;;;;6272904;22;20047;-81
2022/03/15 09:17:42;;;;;;;38.72;22.08;;;8.20;99.90;;;;;;6273242;22;20391;-81
2022/03/15 09:20:11;;;;;;;38.90;21.80;;;8.50;99.90;;;;;;6273313;22;20083;-85
2022/03/15 09:22:37;;;;;;;35.45;20.73;;;8.30;99.90;;;;;;6273395;22;20368;-81
2022/03/15 09:25:04;;;;;;;37.20;21.75;;;8.80;99.90;;;;;;6272673;22;20019;-81
2022/03/15 09:27:30;;;;;;;41.90;22.38;;;8.40;99.90;;;;;;6273272;22;20824;-82
2022/03/15 09:29:56;;;;;;;38.45;21.58;;;8.40;99.90;;;;;;6273168;22;20026;-81
2022/03/15 09:32:25;;;;;;;38.78;21.95;;;8.70;99.90;;;;;;6270560;22;20372;-82
2022/03/15 09:34:51;;;;;;;40.22;22.63;;;8.50;99.90;;;;;;6271448;22;20086;-81
2022/03/15 09:37:20;;;;;;;36.95;21.27;;;8.50;99.90;;;;;;6272758;22;20095;-81
2022/03/15 09:39:47;;;;;;;31.50;20.83;;;8.60;99.90;;;;;;6269811;22;20448;-81
2022/03/15 09:42:16;;;;;;;33.85;21.05;;;8.90;99.90;;;;;;6272522;22;20090;-82
2022/03/15 09:44:42;;;;;;;35.20;19.98;;;9.50;99.90;;;;;;6273023;22;20074;-81
2022/03/15 09:47:08;;;;;;;33.22;20.80;;;9.10;99.90;;;;;;6272541;22;20079;-81
2022/03/15 09:49:36;;;;;;;34.45;21.30;;;9.40;99.90;;;;;;6272535;22;20344;-82
2022/03/15 09:52:04;;;;;;;34.22;19.90;;;9.00;99.90;;;;;;6272453;22;20015;-82
2022/03/15 09:54:30;;;;;;;30.83;20.38;;;9.20;99.90;;;;;;6272604;22;20073;-82
2022/03/15 09:56:57;;;;;;;36.67;20.50;;;9.10;99.90;;;;;;6272708;22;20016;-81
2022/03/15 09:59:25;;;;;;;31.58;19.55;;;9.20;99.90;;;;;;6272291;22;20445;-80
2022/03/15 10:01:54;;;;;;;29.67;19.75;;;9.30;99.90;;;;;;6272036;22;20051;-82
2022/03/15 10:04:22;;;;;;;31.23;19.40;;;9.40;99.90;;;;;;6272771;22;20023;-82
2022/03/15 10:06:48;;;;;;;33.22;20.13;;;9.50;99.90;;;;;;6270592;22;20054;-81
2022/03/15 10:09:14;;;;;;;30.77;19.20;;;9.50;99.90;;;;;;6272701;22;20022;-81
2022/03/15 10:11:41;;;;;;;31.88;19.90;;;10.20;99.90;;;;;;6272824;22;20050;-81
2022/03/15 10:14:18;;;;;;;31.77;18.98;;;9.60;99.90;;;;;;6272529;22;20023;-81
2022/03/15 10:16:44;;;;;;;35.63;20.20;;;9.60;99.90;;;;;;6272631;22;20016;-82
2022/03/15 10:19:12;;;;;;;28.00;18.33;;;9.60;99.90;;;;;;6272202;22;20145;-81
2022/03/15 10:21:44;;;;;;;28.23;18.73;;;9.60;99.90;;;;;;6273153;22;20015;-82
2022/03/15 10:24:13;;;;;;;34.58;19.30;;;9.70;99.90;;;;;;6272921;22;20020;-81
2022/03/15 10:26:40;;;;;;;29.27;19.95;;;9.80;99.90;;;;;;6273025;22;20058;-82
2022/03/15 10:29:08;;;;;;;31.83;19.27;;;9.80;99.90;;;;;;6272786;22;20390;-81
2022/03/15 10:31:34;;;;;;;34.35;20.05;;;10.00;99.90;;;;;;6273972;22;20054;-82
2022/03/15 10:34:03;;;;;;;31.95;18.02;;;9.80;99.90;;;;;;6274103;22;20066;-81
2022/03/15 10:36:37;;;;;;;29.20;17.58;;;9.80;99.90;;;;;;6274214;22;20026;-83
2022/03/15 10:39:03;;;;;;;33.08;18.80;;;10.30;99.90;;;;;;6274807;22;20008;-83
2022/03/15 10:41:29;;;;;;;32.65;17.33;;;10.40;99.90;;;;;;6272219;22;20030;-80
2022/03/15 10:43:57;;;;;;;31.17;16.63;;;9.90;99.90;;;;;;6274521;22;20011;-83
2022/03/15 10:46:25;;;;;;;26.25;17.42;;;10.30;99.90;;;;;;6274442;22;20345;-82
2022/03/15 10:49:02;;;;;;;29.15;17.40;;;9.60;99.90;;;;;;6273731;22;20093;-79
2022/03/15 10:51:28;;;;;;;30.65;17.27;;;9.60;99.90;;;;;;6274090;22;20016;-82
2022/03/15 10:54:00;;;;;;;25.02;17.80;;;9.60;99.90;;;;;;6274291;22;20016;-80
2022/03/15 10:56:26;;;;;;;32.70;17.85;;;10.00;99.90;;;;;;6274548;22;20090;-81
2022/03/15 10:59:00;;;;;;;33.10;18.42;;;9.50;99.90;;;;;;6273720;22;20079;-79
2022/03/15 11:01:28;;;;;;;30.48;16.80;;;9.40;99.90;;;;;;6273727;22;20467;-81
2022/03/15 11:04:06;;;;;;;26.67;16.90;;;9.30;99.90;;;;;;6273721;22;20015;-81
2022/03/15 11:06:40;;;;;;;26.27;16.55;;;9.40;99.90;;;;;;6273979;22;20506;-82
2022/03/15 11:09:29;;;;;;;29.67;16.95;;;9.40;99.90;;;;;;6274224;22;20077;-81
2022/03/15 11:12:01;;;;;;;27.33;17.08;;;9.30;99.90;;;;;;6272183;22;20139;-82
2022/03/15 11:14:32;;;;;;;33.00;17.13;;;9.30;99.90;;;;;;6274398;22;20054;-82
2022/03/15 11:16:58;;;;;;;26.48;17.00;;;9.30;99.90;;;;;;6274255;22;20375;-83
2022/03/15 11:19:28;;;;;;;33.80;16.90;;;9.30;99.90;;;;;;6274159;22;20337;-82
2022/03/15 11:21:56;;;;;;;28.00;16.08;;;9.30;99.90;;;;;;6273925;22;20097;-82
2022/03/15 11:24:25;;;;;;;35.60;17.85;;;9.20;99.90;;;;;;6273519;22;20565;-83
2022/03/15 11:26:51;;;;;;;29.92;17.13;;;9.60;99.90;;;;;;6274319;22;20991;-82
2022/03/15 11:29:22;;;;;;;30.48;17.92;;;9.20;99.90;;;;;;6273973;22;20020;-82
2022/03/15 11:31:49;;;;;;;32.35;17.23;;;9.60;99.90;;;;;;6273759;22;20086;-81
2022/03/15 11:34:16;;;;;;;27.05;16.92;;;9.80;99.90;;;;;;6274218;22;20015;-82
2022/03/15 11:36:43;;;;;;;29.77;17.42;;;9.60;99.90;;;;;;6273888;22;20015;-81
2022/03/15 11:39:09;;;;;;;31.13;17.33;;;9.80;99.90;;;;;;6274231;22;20043;-84
2022/03/15 11:41:35;;;;;;;29.80;17.02;;;9.20;99.90;;;;;;6272038;22;20020;-82
2022/03/15 11:44:09;;;;;;;31.45;18.15;;;9.40;99.90;;;;;;6273850;22;20023;-83
2022/03/15 11:46:44;;;;;;;27.23;17.00;;;9.50;99.90;;;;;;6272532;22;20015;-83
2022/03/15 11:49:33;;;;;;;29.58;17.58;;;9.30;99.90;;;;;;6274249;22;20024;-82
2022/03/15 11:52:03;;;;;;;29.65;17.48;;;9.90;99.90;;;;;;6272163;22;20026;-83
2022/03/15 11:54:39;;;;;;;27.33;17.02;;;9.40;99.90;;;;;;6274197;22;20019;-82
2022/03/15 11:57:39;;;;;;;31.35;18.25;;;9.40;99.90;;;;;;6273697;22;20081;-82
2022/03/15 12:00:06;;;;;;;28.75;17.70;;;9.50;99.90;;;;;;6273969;22;20039;-81
2022/03/15 12:02:40;;;;;;;36.95;20.73;;;9.60;99.90;;;;;;6273678;22;20567;-79
2022/03/15 12:05:20;;;;;;;32.13;18.35;;;10.00;99.90;;;;;;6273546;22;20495;-81
2022/03/15 12:08:11;;;;;;;27.85;17.77;;;9.80;99.90;;;;;;6273093;22;20340;-82
2022/03/15 12:10:38;;;;;;;31.52;18.15;;;10.00;99.90;;;;;;6273540;22;20045;-83
2022/03/15 12:13:05;;;;;;;31.45;18.27;;;10.10;99.90;;;;;;6273230;22;20341;-82
2022/03/15 12:15:45;;;;;;;33.78;18.05;;;10.30;99.90;;;;;;6273842;22;20012;-80
2022/03/15 12:21:08;;;;;;;31.42;17.75;;;10.50;99.90;;;;;;6273415;22;20116;-83
2022/03/15 12:23:48;;;;;;;29.58;16.73;;;10.70;99.90;;;;;;6272852;22;20452;-81
2022/03/15 12:26:26;;;;;;;26.45;15.77;;;10.80;99.90;;;;;;6271225;22;20345;-78
2022/03/15 12:28:57;;;;;;;28.80;16.25;;;10.80;99.90;;;;;;6273065;22;20012;-78
2022/03/15 12:31:40;;;;;;;24.88;15.65;;;11.00;99.90;;;;;;6273468;22;20019;-80
2022/03/15 12:34:14;;;;;;;26.50;14.93;;;11.10;99.90;;;;;;6273535;22;20008;-80
2022/03/15 12:36:53;;;;;;;27.13;14.85;;;11.20;99.90;;;;;;6273492;22;20034;-79
2022/03/15 12:39:22;;;;;;;26.80;13.73;;;11.40;99.90;;;;;;6270510;22;20018;-79
2022/03/15 12:41:50;;;;;;;23.67;13.52;;;11.90;99.90;;;;;;6272858;22;20011;-79
2022/03/15 12:44:36;;;;;;;21.85;11.27;;;11.70;99.90;;;;;;6273176;22;20011;-78